sensor_id;sensor_type;location;lat;lon;timestamp;P1;durP1;ratioP1;P2;durP2;ratioP2
12271;SDS011;6198;51.446;6.698;2022-12-07T00:01:42;30.27;;;23.57;;
12271;SDS011;6198;51.446;6.698;2022-12-07T00:04:09;24.57;;;21.03;;
12271;SDS011;6198;51.446;6.698;2022-12-07T00:06:37;26.53;;;22.17;;
12271;SDS011;6198;51.446;6.698;2022-12-07T00:09:03;27.17;;;23.03;;
12271;SDS011;6198;51.446;6.698;2022-12-07T00:11:30;25.37;;;22.30;;
12271;SDS011;6198;51.446;6.698;2022-12-07T00:14:00;26.23;;;22.97;;
12271;SDS011;6198;51.446;6.698;2022-12-07T00:16:28;26.67;;;23.30;;
12271;SDS011;6198;51.446;6.698;2022-12-07T00:18:54;31.47;;;24.97;;
12271;SDS011;6198;51.446;6.698;2022-12-07T00:21:21;28.73;;;23.33;;
12271;SDS011;6198;51.446;6.698;2022-12-07T00:23:48;29.63;;;23.63;;
12271;SDS011;6198;51.446;6.698;2022-12-07T00:26:19;31.50;;;25.07;;
12271;SDS011;6198;51.446;6.698;2022-12-07T00:28:46;27.60;;;24.00;;
12271;SDS011;6198;51.446;6.698;2022-12-07T00:31:12;28.83;;;24.47;;
12271;SDS011;6198;51.446;6.698;2022-12-07T00:33:38;27.93;;;23.77;;
12271;SDS011;6198;51.446;6.698;2022-12-07T00:36:07;32.27;;;26.37;;
12271;SDS011;6198;51.446;6.698;2022-12-07T00:38:34;30.50;;;25.57;;
12271;SDS011;6198;51.446;6.698;2022-12-07T00:41:02;26.47;;;23.47;;
12271;SDS011;6198;51.446;6.698;2022-12-07T00:43:28;28.13;;;23.77;;
12271;SDS011;6198;51.446;6.698;2022-12-07T00:45:54;31.83;;;25.90;;
12271;SDS011;6198;51.446;6.698;2022-12-07T00:48:21;31.57;;;25.43;;
12271;SDS011;6198;51.446;6.698;2022-12-07T00:50:47;30.17;;;25.30;;
12271;SDS011;6198;51.446;6.698;2022-12-07T00:53:13;33.63;;;24.93;;
12271;SDS011;6198;51.446;6.698;2022-12-07T00:55:39;29.37;;;24.23;;
12271;SDS011;6198;51.446;6.698;2022-12-07T00:58:05;27.63;;;24.63;;
12271;SDS011;6198;51.446;6.698;2022-12-07T01:00:31;28.93;;;25.50;;
12271;SDS011;6198;51.446;6.698;2022-12-07T01:02:58;28.50;;;23.60;;
12271;SDS011;6198;51.446;6.698;2022-12-07T01:05:24;29.33;;;24.70;;
12271;SDS011;6198;51.446;6.698;2022-12-07T01:07:50;28.37;;;24.13;;
12271;SDS011;6198;51.446;6.698;2022-12-07T01:10:16;28.03;;;24.17;;
12271;SDS011;6198;51.446;6.698;2022-12-07T01:12:42;27.37;;;24.37;;
12271;SDS011;6198;51.446;6.698;2022-12-07T01:15:08;26.73;;;23.73;;
12271;SDS011;6198;51.446;6.698;2022-12-07T01:17:34;31.57;;;23.60;;
12271;SDS011;6198;51.446;6.698;2022-12-07T01:20:01;29.57;;;24.20;;
12271;SDS011;6198;51.446;6.698;2022-12-07T01:22:27;26.77;;;23.93;;
12271;SDS011;6198;51.446;6.698;2022-12-07T01:24:53;28.97;;;22.77;;
12271;SDS011;6198;51.446;6.698;2022-12-07T01:27:19;29.10;;;24.77;;
12271;SDS011;6198;51.446;6.698;2022-12-07T01:29:45;28.70;;;24.80;;
12271;SDS011;6198;51.446;6.698;2022-12-07T01:32:11;29.17;;;24.07;;
12271;SDS011;6198;51.446;6.698;2022-12-07T01:34:37;30.17;;;24.30;;
12271;SDS011;6198;51.446;6.698;2022-12-07T01:37:03;30.97;;;24.97;;
12271;SDS011;6198;51.446;6.698;2022-12-07T01:39:29;32.77;;;25.10;;
12271;SDS011;6198;51.446;6.698;2022-12-07T01:41:55;28.83;;;24.13;;
12271;SDS011;6198;51.446;6.698;2022-12-07T01:44:22;28.27;;;24.67;;
12271;SDS011;6198;51.446;6.698;2022-12-07T01:49:16;35.10;;;25.50;;
12271;SDS011;6198;51.446;6.698;2022-12-07T01:51:43;33.97;;;25.07;;
12271;SDS011;6198;51.446;6.698;2022-12-07T01:54:10;30.63;;;24.33;;
12271;SDS011;6198;51.446;6.698;2022-12-07T01:56:37;26.17;;;23.30;;
12271;SDS011;6198;51.446;6.698;2022-12-07T01:59:04;30.23;;;24.90;;
12271;SDS011;6198;51.446;6.698;2022-12-07T02:01:30;33.10;;;25.33;;
12271;SDS011;6198;51.446;6.698;2022-12-07T02:03:56;30.27;;;24.77;;
12271;SDS011;6198;51.446;6.698;2022-12-07T02:06:23;32.03;;;24.50;;
12271;SDS011;6198;51.446;6.698;2022-12-07T02:08:50;31.23;;;25.07;;
12271;SDS011;6198;51.446;6.698;2022-12-07T02:11:16;33.90;;;26.90;;
12271;SDS011;6198;51.446;6.698;2022-12-07T02:13:42;34.30;;;27.30;;
12271;SDS011;6198;51.446;6.698;2022-12-07T02:16:12;31.07;;;25.27;;
12271;SDS011;6198;51.446;6.698;2022-12-07T02:18:54;33.83;;;28.73;;
12271;SDS011;6198;51.446;6.698;2022-12-07T02:24:03;33.50;;;25.43;;
12271;SDS011;6198;51.446;6.698;2022-12-07T02:32:10;35.57;;;27.33;;
12271;SDS011;6198;51.446;6.698;2022-12-07T02:37:06;32.20;;;26.93;;
12271;SDS011;6198;51.446;6.698;2022-12-07T02:39:49;34.07;;;25.40;;
12271;SDS011;6198;51.446;6.698;2022-12-07T02:42:17;32.50;;;26.23;;
12271;SDS011;6198;51.446;6.698;2022-12-07T02:44:45;32.00;;;25.90;;
12271;SDS011;6198;51.446;6.698;2022-12-07T02:47:12;35.77;;;26.70;;
12271;SDS011;6198;51.446;6.698;2022-12-07T02:49:39;33.83;;;25.27;;
12271;SDS011;6198;51.446;6.698;2022-12-07T02:52:06;38.77;;;26.77;;
12271;SDS011;6198;51.446;6.698;2022-12-07T02:54:32;34.57;;;26.20;;
12271;SDS011;6198;51.446;6.698;2022-12-07T02:57:05;34.77;;;27.07;;
12271;SDS011;6198;51.446;6.698;2022-12-07T03:07:18;35.17;;;27.60;;
12271;SDS011;6198;51.446;6.698;2022-12-07T03:09:59;34.70;;;27.33;;
12271;SDS011;6198;51.446;6.698;2022-12-07T03:12:31;34.77;;;26.20;;
12271;SDS011;6198;51.446;6.698;2022-12-07T03:15:03;37.00;;;25.43;;
12271;SDS011;6198;51.446;6.698;2022-12-07T03:17:32;37.60;;;26.57;;
12271;SDS011;6198;51.446;6.698;2022-12-07T03:20:03;38.67;;;27.47;;
12271;SDS011;6198;51.446;6.698;2022-12-07T03:22:30;32.60;;;25.60;;
12271;SDS011;6198;51.446;6.698;2022-12-07T03:24:58;33.67;;;26.73;;
12271;SDS011;6198;51.446;6.698;2022-12-07T03:27:25;34.37;;;28.00;;
12271;SDS011;6198;51.446;6.698;2022-12-07T03:29:54;34.97;;;26.90;;
12271;SDS011;6198;51.446;6.698;2022-12-07T03:32:25;40.20;;;26.53;;
12271;SDS011;6198;51.446;6.698;2022-12-07T03:37:23;36.33;;;29.10;;
12271;SDS011;6198;51.446;6.698;2022-12-07T03:40:07;39.33;;;29.63;;
12271;SDS011;6198;51.446;6.698;2022-12-07T03:42:36;38.30;;;27.97;;
12271;SDS011;6198;51.446;6.698;2022-12-07T03:45:02;34.93;;;28.30;;
12271;SDS011;6198;51.446;6.698;2022-12-07T03:47:30;39.60;;;28.30;;
12271;SDS011;6198;51.446;6.698;2022-12-07T03:49:59;41.47;;;30.07;;
12271;SDS011;6198;51.446;6.698;2022-12-07T03:52:41;37.80;;;29.50;;
12271;SDS011;6198;51.446;6.698;2022-12-07T03:55:15;38.60;;;29.23;;
12271;SDS011;6198;51.446;6.698;2022-12-07T03:57:44;39.00;;;28.53;;
12271;SDS011;6198;51.446;6.698;2022-12-07T04:00:12;36.53;;;28.77;;
12271;SDS011;6198;51.446;6.698;2022-12-07T04:02:38;36.00;;;28.87;;
12271;SDS011;6198;51.446;6.698;2022-12-07T04:05:05;41.50;;;29.13;;
12271;SDS011;6198;51.446;6.698;2022-12-07T04:07:31;35.87;;;29.63;;
12271;SDS011;6198;51.446;6.698;2022-12-07T04:09:57;39.00;;;29.47;;
12271;SDS011;6198;51.446;6.698;2022-12-07T04:12:23;35.73;;;27.50;;
12271;SDS011;6198;51.446;6.698;2022-12-07T04:14:49;39.27;;;28.10;;
12271;SDS011;6198;51.446;6.698;2022-12-07T04:17:15;35.63;;;27.07;;
12271;SDS011;6198;51.446;6.698;2022-12-07T04:19:41;35.57;;;26.50;;
12271;SDS011;6198;51.446;6.698;2022-12-07T04:22:07;35.73;;;27.10;;
12271;SDS011;6198;51.446;6.698;2022-12-07T04:24:33;38.77;;;25.93;;
12271;SDS011;6198;51.446;6.698;2022-12-07T04:26:59;38.17;;;27.27;;
12271;SDS011;6198;51.446;6.698;2022-12-07T04:29:25;36.40;;;26.03;;
12271;SDS011;6198;51.446;6.698;2022-12-07T04:31:51;37.40;;;27.00;;
12271;SDS011;6198;51.446;6.698;2022-12-07T04:34:17;34.80;;;26.93;;
12271;SDS011;6198;51.446;6.698;2022-12-07T04:36:44;32.40;;;25.30;;
12271;SDS011;6198;51.446;6.698;2022-12-07T04:39:20;35.67;;;26.07;;
12271;SDS011;6198;51.446;6.698;2022-12-07T04:41:47;37.73;;;26.20;;
12271;SDS011;6198;51.446;6.698;2022-12-07T04:44:13;33.07;;;25.57;;
12271;SDS011;6198;51.446;6.698;2022-12-07T04:46:39;32.03;;;24.60;;
12271;SDS011;6198;51.446;6.698;2022-12-07T04:49:06;34.23;;;25.73;;
12271;SDS011;6198;51.446;6.698;2022-12-07T04:51:32;35.77;;;25.40;;
12271;SDS011;6198;51.446;6.698;2022-12-07T04:53:58;31.90;;;23.90;;
12271;SDS011;6198;51.446;6.698;2022-12-07T04:56:24;27.87;;;22.30;;
12271;SDS011;6198;51.446;6.698;2022-12-07T04:58:51;31.13;;;22.63;;
12271;SDS011;6198;51.446;6.698;2022-12-07T05:01:17;31.53;;;21.60;;
12271;SDS011;6198;51.446;6.698;2022-12-07T05:03:44;32.40;;;22.90;;
12271;SDS011;6198;51.446;6.698;2022-12-07T05:06:10;32.03;;;21.20;;
12271;SDS011;6198;51.446;6.698;2022-12-07T05:08:36;28.37;;;19.73;;
12271;SDS011;6198;51.446;6.698;2022-12-07T05:11:03;27.47;;;21.53;;
12271;SDS011;6198;51.446;6.698;2022-12-07T05:13:29;29.30;;;20.87;;
12271;SDS011;6198;51.446;6.698;2022-12-07T05:15:56;29.33;;;20.10;;
12271;SDS011;6198;51.446;6.698;2022-12-07T05:18:21;27.73;;;19.80;;
12271;SDS011;6198;51.446;6.698;2022-12-07T05:20:47;29.40;;;20.57;;
12271;SDS011;6198;51.446;6.698;2022-12-07T05:23:14;26.20;;;19.97;;
12271;SDS011;6198;51.446;6.698;2022-12-07T05:25:40;30.10;;;18.97;;
12271;SDS011;6198;51.446;6.698;2022-12-07T05:28:06;27.33;;;18.87;;
12271;SDS011;6198;51.446;6.698;2022-12-07T05:30:32;27.63;;;18.57;;
12271;SDS011;6198;51.446;6.698;2022-12-07T05:32:58;30.70;;;19.00;;
12271;SDS011;6198;51.446;6.698;2022-12-07T05:35:24;27.93;;;19.03;;
12271;SDS011;6198;51.446;6.698;2022-12-07T05:37:50;31.77;;;19.67;;
12271;SDS011;6198;51.446;6.698;2022-12-07T05:40:16;28.03;;;18.87;;
12271;SDS011;6198;51.446;6.698;2022-12-07T05:42:43;29.70;;;18.40;;
12271;SDS011;6198;51.446;6.698;2022-12-07T05:45:10;25.67;;;17.37;;
12271;SDS011;6198;51.446;6.698;2022-12-07T05:47:37;26.67;;;17.27;;
12271;SDS011;6198;51.446;6.698;2022-12-07T05:50:04;20.57;;;16.40;;
12271;SDS011;6198;51.446;6.698;2022-12-07T05:52:30;22.57;;;15.47;;
12271;SDS011;6198;51.446;6.698;2022-12-07T05:54:56;23.53;;;16.10;;
12271;SDS011;6198;51.446;6.698;2022-12-07T05:57:22;23.47;;;17.67;;
12271;SDS011;6198;51.446;6.698;2022-12-07T05:59:48;24.63;;;17.20;;
12271;SDS011;6198;51.446;6.698;2022-12-07T06:02:15;25.57;;;17.33;;
12271;SDS011;6198;51.446;6.698;2022-12-07T06:04:42;23.03;;;17.67;;
12271;SDS011;6198;51.446;6.698;2022-12-07T06:07:09;23.77;;;18.07;;
12271;SDS011;6198;51.446;6.698;2022-12-07T06:09:35;23.17;;;15.70;;
12271;SDS011;6198;51.446;6.698;2022-12-07T06:12:02;24.07;;;17.50;;
12271;SDS011;6198;51.446;6.698;2022-12-07T06:14:47;26.03;;;16.00;;
12271;SDS011;6198;51.446;6.698;2022-12-07T06:17:13;23.53;;;16.50;;
12271;SDS011;6198;51.446;6.698;2022-12-07T06:19:39;24.80;;;16.93;;
12271;SDS011;6198;51.446;6.698;2022-12-07T06:22:05;29.13;;;16.70;;
12271;SDS011;6198;51.446;6.698;2022-12-07T06:24:32;23.07;;;14.60;;
12271;SDS011;6198;51.446;6.698;2022-12-07T06:26:58;25.70;;;16.87;;
12271;SDS011;6198;51.446;6.698;2022-12-07T06:29:24;25.93;;;16.27;;
12271;SDS011;6198;51.446;6.698;2022-12-07T06:31:50;20.67;;;16.47;;
12271;SDS011;6198;51.446;6.698;2022-12-07T06:34:17;24.80;;;16.47;;
12271;SDS011;6198;51.446;6.698;2022-12-07T06:36:44;28.53;;;16.93;;
12271;SDS011;6198;51.446;6.698;2022-12-07T06:39:10;30.47;;;15.93;;
12271;SDS011;6198;51.446;6.698;2022-12-07T06:41:37;25.83;;;16.90;;
12271;SDS011;6198;51.446;6.698;2022-12-07T06:44:06;28.27;;;17.17;;
12271;SDS011;6198;51.446;6.698;2022-12-07T06:46:32;27.67;;;16.70;;
12271;SDS011;6198;51.446;6.698;2022-12-07T06:49:00;22.90;;;16.83;;
12271;SDS011;6198;51.446;6.698;2022-12-07T06:51:26;24.33;;;16.70;;
12271;SDS011;6198;51.446;6.698;2022-12-07T06:53:52;27.33;;;17.23;;
12271;SDS011;6198;51.446;6.698;2022-12-07T06:56:18;23.07;;;16.27;;
12271;SDS011;6198;51.446;6.698;2022-12-07T06:58:44;29.23;;;17.53;;
12271;SDS011;6198;51.446;6.698;2022-12-07T07:01:10;24.20;;;16.40;;
12271;SDS011;6198;51.446;6.698;2022-12-07T07:03:37;21.23;;;15.63;;
12271;SDS011;6198;51.446;6.698;2022-12-07T07:06:03;24.80;;;16.63;;
12271;SDS011;6198;51.446;6.698;2022-12-07T07:08:29;21.53;;;17.10;;
12271;SDS011;6198;51.446;6.698;2022-12-07T07:10:55;22.77;;;16.97;;
12271;SDS011;6198;51.446;6.698;2022-12-07T07:13:21;26.03;;;17.50;;
12271;SDS011;6198;51.446;6.698;2022-12-07T07:15:47;26.20;;;18.13;;
12271;SDS011;6198;51.446;6.698;2022-12-07T07:18:13;24.17;;;18.13;;
12271;SDS011;6198;51.446;6.698;2022-12-07T07:20:39;25.30;;;17.03;;
12271;SDS011;6198;51.446;6.698;2022-12-07T07:23:06;30.60;;;17.13;;
12271;SDS011;6198;51.446;6.698;2022-12-07T07:25:32;24.17;;;17.70;;
12271;SDS011;6198;51.446;6.698;2022-12-07T07:27:58;24.13;;;18.13;;
12271;SDS011;6198;51.446;6.698;2022-12-07T07:30:24;28.00;;;18.93;;
12271;SDS011;6198;51.446;6.698;2022-12-07T07:32:50;28.20;;;18.90;;
12271;SDS011;6198;51.446;6.698;2022-12-07T07:35:16;25.27;;;18.40;;
12271;SDS011;6198;51.446;6.698;2022-12-07T07:37:42;25.80;;;17.73;;
12271;SDS011;6198;51.446;6.698;2022-12-07T07:40:09;25.50;;;18.17;;
12271;SDS011;6198;51.446;6.698;2022-12-07T07:42:35;23.70;;;18.33;;
12271;SDS011;6198;51.446;6.698;2022-12-07T07:45:01;29.47;;;18.87;;
12271;SDS011;6198;51.446;6.698;2022-12-07T07:47:27;30.63;;;19.20;;
12271;SDS011;6198;51.446;6.698;2022-12-07T07:49:54;29.17;;;17.07;;
12271;SDS011;6198;51.446;6.698;2022-12-07T07:52:20;22.17;;;18.20;;
12271;SDS011;6198;51.446;6.698;2022-12-07T07:54:45;24.53;;;18.17;;
12271;SDS011;6198;51.446;6.698;2022-12-07T07:57:12;30.70;;;19.73;;
12271;SDS011;6198;51.446;6.698;2022-12-07T07:59:38;32.40;;;20.50;;
12271;SDS011;6198;51.446;6.698;2022-12-07T08:02:04;27.90;;;19.57;;
12271;SDS011;6198;51.446;6.698;2022-12-07T08:04:30;28.40;;;19.70;;
12271;SDS011;6198;51.446;6.698;2022-12-07T08:06:56;35.87;;;24.70;;
12271;SDS011;6198;51.446;6.698;2022-12-07T08:09:22;33.67;;;24.43;;
12271;SDS011;6198;51.446;6.698;2022-12-07T08:11:48;70.90;;;48.53;;
12271;SDS011;6198;51.446;6.698;2022-12-07T08:14:14;83.60;;;58.63;;
12271;SDS011;6198;51.446;6.698;2022-12-07T08:16:40;53.60;;;39.63;;
12271;SDS011;6198;51.446;6.698;2022-12-07T08:19:06;33.83;;;25.30;;
12271;SDS011;6198;51.446;6.698;2022-12-07T08:21:32;36.67;;;23.37;;
12271;SDS011;6198;51.446;6.698;2022-12-07T08:23:58;44.03;;;28.00;;
12271;SDS011;6198;51.446;6.698;2022-12-07T08:26:24;48.40;;;33.30;;
12271;SDS011;6198;51.446;6.698;2022-12-07T08:28:50;49.10;;;35.63;;
12271;SDS011;6198;51.446;6.698;2022-12-07T08:31:16;41.07;;;29.67;;
12271;SDS011;6198;51.446;6.698;2022-12-07T08:33:44;34.07;;;23.20;;
12271;SDS011;6198;51.446;6.698;2022-12-07T08:36:11;29.47;;;23.03;;
12271;SDS011;6198;51.446;6.698;2022-12-07T08:38:38;29.73;;;21.67;;
12271;SDS011;6198;51.446;6.698;2022-12-07T08:41:05;33.43;;;22.93;;
12271;SDS011;6198;51.446;6.698;2022-12-07T08:43:31;32.73;;;22.23;;
12271;SDS011;6198;51.446;6.698;2022-12-07T08:48:26;31.13;;;22.37;;
12271;SDS011;6198;51.446;6.698;2022-12-07T08:50:52;32.03;;;22.00;;
12271;SDS011;6198;51.446;6.698;2022-12-07T08:53:18;26.30;;;21.07;;
12271;SDS011;6198;51.446;6.698;2022-12-07T08:55:44;30.67;;;21.07;;
12271;SDS011;6198;51.446;6.698;2022-12-07T08:58:11;30.10;;;21.30;;
12271;SDS011;6198;51.446;6.698;2022-12-07T09:00:37;39.07;;;22.50;;
12271;SDS011;6198;51.446;6.698;2022-12-07T09:03:03;30.10;;;22.53;;
12271;SDS011;6198;51.446;6.698;2022-12-07T09:05:29;27.97;;;20.10;;
12271;SDS011;6198;51.446;6.698;2022-12-07T09:07:56;27.67;;;19.20;;
12271;SDS011;6198;51.446;6.698;2022-12-07T09:10:23;31.00;;;20.93;;
12271;SDS011;6198;51.446;6.698;2022-12-07T09:12:49;30.03;;;20.60;;
12271;SDS011;6198;51.446;6.698;2022-12-07T09:15:15;28.73;;;21.37;;
12271;SDS011;6198;51.446;6.698;2022-12-07T09:17:41;23.13;;;18.43;;
12271;SDS011;6198;51.446;6.698;2022-12-07T09:20:07;24.23;;;17.97;;
12271;SDS011;6198;51.446;6.698;2022-12-07T09:22:33;20.20;;;16.23;;
12271;SDS011;6198;51.446;6.698;2022-12-07T09:24:59;19.20;;;15.30;;
12271;SDS011;6198;51.446;6.698;2022-12-07T09:27:26;19.77;;;15.40;;
12271;SDS011;6198;51.446;6.698;2022-12-07T09:29:52;19.47;;;13.83;;
12271;SDS011;6198;51.446;6.698;2022-12-07T09:32:18;20.87;;;12.60;;
12271;SDS011;6198;51.446;6.698;2022-12-07T09:34:44;17.73;;;11.57;;
12271;SDS011;6198;51.446;6.698;2022-12-07T09:37:10;17.53;;;12.17;;
12271;SDS011;6198;51.446;6.698;2022-12-07T09:39:39;17.47;;;12.40;;
12271;SDS011;6198;51.446;6.698;2022-12-07T09:42:05;16.27;;;12.07;;
12271;SDS011;6198;51.446;6.698;2022-12-07T09:44:32;16.30;;;11.70;;
12271;SDS011;6198;51.446;6.698;2022-12-07T09:46:59;20.17;;;11.47;;
12271;SDS011;6198;51.446;6.698;2022-12-07T09:49:25;20.43;;;11.77;;
12271;SDS011;6198;51.446;6.698;2022-12-07T09:52:16;16.93;;;11.57;;
12271;SDS011;6198;51.446;6.698;2022-12-07T09:54:45;16.47;;;10.63;;
12271;SDS011;6198;51.446;6.698;2022-12-07T09:57:11;15.00;;;9.77;;
12271;SDS011;6198;51.446;6.698;2022-12-07T09:59:38;15.07;;;10.63;;
12271;SDS011;6198;51.446;6.698;2022-12-07T10:02:22;19.37;;;9.67;;
12271;SDS011;6198;51.446;6.698;2022-12-07T10:04:49;22.43;;;14.53;;
12271;SDS011;6198;51.446;6.698;2022-12-07T10:07:15;18.73;;;10.97;;
12271;SDS011;6198;51.446;6.698;2022-12-07T10:09:41;15.87;;;12.00;;
12271;SDS011;6198;51.446;6.698;2022-12-07T10:12:08;15.03;;;9.10;;
12271;SDS011;6198;51.446;6.698;2022-12-07T10:14:36;13.43;;;8.97;;
12271;SDS011;6198;51.446;6.698;2022-12-07T10:17:02;16.63;;;10.70;;
12271;SDS011;6198;51.446;6.698;2022-12-07T10:19:29;16.80;;;8.87;;
12271;SDS011;6198;51.446;6.698;2022-12-07T10:22:09;15.07;;;8.23;;
12271;SDS011;6198;51.446;6.698;2022-12-07T10:24:35;20.23;;;7.77;;
12271;SDS011;6198;51.446;6.698;2022-12-07T10:27:04;15.50;;;9.17;;
12271;SDS011;6198;51.446;6.698;2022-12-07T10:29:31;18.53;;;10.60;;
12271;SDS011;6198;51.446;6.698;2022-12-07T10:32:02;14.57;;;7.20;;
12271;SDS011;6198;51.446;6.698;2022-12-07T10:34:29;17.90;;;8.00;;
12271;SDS011;6198;51.446;6.698;2022-12-07T10:39:50;9.50;;;6.33;;
12271;SDS011;6198;51.446;6.698;2022-12-07T10:42:18;15.33;;;9.67;;
12271;SDS011;6198;51.446;6.698;2022-12-07T10:44:44;11.93;;;6.60;;
12271;SDS011;6198;51.446;6.698;2022-12-07T10:57:28;14.47;;;5.23;;
12271;SDS011;6198;51.446;6.698;2022-12-07T11:05:11;9.50;;;5.60;;
12271;SDS011;6198;51.446;6.698;2022-12-07T11:07:47;11.97;;;5.53;;
12271;SDS011;6198;51.446;6.698;2022-12-07T11:10:18;9.53;;;5.20;;
12271;SDS011;6198;51.446;6.698;2022-12-07T11:21:00;9.33;;;4.90;;
12271;SDS011;6198;51.446;6.698;2022-12-07T11:26:21;14.73;;;4.57;;
12271;SDS011;6198;51.446;6.698;2022-12-07T11:34:12;11.83;;;5.10;;
12271;SDS011;6198;51.446;6.698;2022-12-07T11:36:44;8.43;;;4.70;;
12271;SDS011;6198;51.446;6.698;2022-12-07T11:42:06;10.80;;;5.30;;
12271;SDS011;6198;51.446;6.698;2022-12-07T11:44:51;7.67;;;4.87;;
12271;SDS011;6198;51.446;6.698;2022-12-07T11:50:01;8.67;;;5.23;;
12271;SDS011;6198;51.446;6.698;2022-12-07T11:52:40;9.20;;;5.23;;
12271;SDS011;6198;51.446;6.698;2022-12-07T11:55:14;7.87;;;5.07;;
12271;SDS011;6198;51.446;6.698;2022-12-07T11:57:42;9.60;;;5.00;;
12271;SDS011;6198;51.446;6.698;2022-12-07T12:00:14;9.20;;;4.80;;
12271;SDS011;6198;51.446;6.698;2022-12-07T12:02:46;16.17;;;4.70;;
12271;SDS011;6198;51.446;6.698;2022-12-07T12:05:19;9.37;;;5.27;;
12271;SDS011;6198;51.446;6.698;2022-12-07T12:07:47;8.80;;;4.30;;
12271;SDS011;6198;51.446;6.698;2022-12-07T12:10:16;9.20;;;4.47;;
12271;SDS011;6198;51.446;6.698;2022-12-07T12:12:47;10.10;;;4.50;;
12271;SDS011;6198;51.446;6.698;2022-12-07T12:15:29;11.83;;;4.37;;
12271;SDS011;6198;51.446;6.698;2022-12-07T12:18:02;8.73;;;3.53;;
12271;SDS011;6198;51.446;6.698;2022-12-07T12:23:10;8.13;;;4.80;;
12271;SDS011;6198;51.446;6.698;2022-12-07T12:25:39;8.20;;;4.90;;
12271;SDS011;6198;51.446;6.698;2022-12-07T12:28:10;8.50;;;4.33;;
12271;SDS011;6198;51.446;6.698;2022-12-07T12:30:44;8.57;;;4.50;;
12271;SDS011;6198;51.446;6.698;2022-12-07T12:33:13;9.00;;;4.57;;
12271;SDS011;6198;51.446;6.698;2022-12-07T12:35:40;6.43;;;3.80;;
12271;SDS011;6198;51.446;6.698;2022-12-07T12:38:39;8.13;;;4.03;;
12271;SDS011;6198;51.446;6.698;2022-12-07T12:40:59;15.03;;;4.30;;
12271;SDS011;6198;51.446;6.698;2022-12-07T12:51:40;8.13;;;3.87;;
12271;SDS011;6198;51.446;6.698;2022-12-07T12:54:25;5.97;;;4.13;;
12271;SDS011;6198;51.446;6.698;2022-12-07T12:56:58;6.20;;;3.93;;
12271;SDS011;6198;51.446;6.698;2022-12-07T12:59:28;5.07;;;3.50;;
12271;SDS011;6198;51.446;6.698;2022-12-07T13:01:56;19.40;;;10.73;;
12271;SDS011;6198;51.446;6.698;2022-12-07T13:04:30;7.53;;;5.07;;
12271;SDS011;6198;51.446;6.698;2022-12-07T13:06:59;13.13;;;7.37;;
12271;SDS011;6198;51.446;6.698;2022-12-07T13:09:27;21.47;;;8.80;;
12271;SDS011;6198;51.446;6.698;2022-12-07T13:12:01;32.90;;;19.77;;
12271;SDS011;6198;51.446;6.698;2022-12-07T13:17:11;13.77;;;10.63;;
12271;SDS011;6198;51.446;6.698;2022-12-07T13:22:31;11.27;;;5.20;;
12271;SDS011;6198;51.446;6.698;2022-12-07T13:27:35;7.30;;;3.90;;
12271;SDS011;6198;51.446;6.698;2022-12-07T13:30:03;12.37;;;4.40;;
12271;SDS011;6198;51.446;6.698;2022-12-07T13:32:33;13.03;;;5.10;;
12271;SDS011;6198;51.446;6.698;2022-12-07T13:34:59;11.80;;;4.40;;
12271;SDS011;6198;51.446;6.698;2022-12-07T13:37:27;7.33;;;4.00;;
12271;SDS011;6198;51.446;6.698;2022-12-07T13:39:56;7.10;;;3.70;;
12271;SDS011;6198;51.446;6.698;2022-12-07T13:42:26;10.00;;;3.67;;
12271;SDS011;6198;51.446;6.698;2022-12-07T13:44:52;5.70;;;3.43;;
12271;SDS011;6198;51.446;6.698;2022-12-07T13:47:22;9.40;;;3.43;;
12271;SDS011;6198;51.446;6.698;2022-12-07T13:49:55;6.47;;;3.60;;
12271;SDS011;6198;51.446;6.698;2022-12-07T13:52:30;6.50;;;3.03;;
12271;SDS011;6198;51.446;6.698;2022-12-07T13:55:00;6.80;;;3.50;;
12271;SDS011;6198;51.446;6.698;2022-12-07T13:57:28;5.43;;;3.20;;
12271;SDS011;6198;51.446;6.698;2022-12-07T13:59:55;7.30;;;3.10;;
12271;SDS011;6198;51.446;6.698;2022-12-07T14:02:31;7.27;;;3.70;;
12271;SDS011;6198;51.446;6.698;2022-12-07T14:05:12;8.83;;;2.97;;
12271;SDS011;6198;51.446;6.698;2022-12-07T14:12:52;11.63;;;4.53;;
12271;SDS011;6198;51.446;6.698;2022-12-07T14:15:20;12.10;;;5.13;;
12271;SDS011;6198;51.446;6.698;2022-12-07T14:17:53;15.03;;;6.43;;
12271;SDS011;6198;51.446;6.698;2022-12-07T14:20:32;10.47;;;5.30;;
12271;SDS011;6198;51.446;6.698;2022-12-07T14:22:59;7.43;;;3.70;;
12271;SDS011;6198;51.446;6.698;2022-12-07T14:25:33;13.83;;;4.30;;
12271;SDS011;6198;51.446;6.698;2022-12-07T14:28:09;10.30;;;3.93;;
12271;SDS011;6198;51.446;6.698;2022-12-07T14:30:50;10.17;;;4.27;;
12271;SDS011;6198;51.446;6.698;2022-12-07T14:33:16;8.20;;;3.73;;
12271;SDS011;6198;51.446;6.698;2022-12-07T14:35:42;13.30;;;4.50;;
12271;SDS011;6198;51.446;6.698;2022-12-07T14:38:08;17.93;;;8.30;;
12271;SDS011;6198;51.446;6.698;2022-12-07T14:40:34;14.57;;;7.53;;
12271;SDS011;6198;51.446;6.698;2022-12-07T14:43:01;18.10;;;10.17;;
12271;SDS011;6198;51.446;6.698;2022-12-07T14:45:27;17.53;;;5.90;;
12271;SDS011;6198;51.446;6.698;2022-12-07T14:47:53;20.83;;;12.47;;
12271;SDS011;6198;51.446;6.698;2022-12-07T14:50:20;18.73;;;11.23;;
12271;SDS011;6198;51.446;6.698;2022-12-07T14:52:47;9.17;;;5.97;;
12271;SDS011;6198;51.446;6.698;2022-12-07T14:55:14;13.00;;;4.73;;
12271;SDS011;6198;51.446;6.698;2022-12-07T14:57:42;17.80;;;11.57;;
12271;SDS011;6198;51.446;6.698;2022-12-07T15:00:09;16.57;;;9.20;;
12271;SDS011;6198;51.446;6.698;2022-12-07T15:02:35;14.97;;;10.13;;
12271;SDS011;6198;51.446;6.698;2022-12-07T15:05:01;12.73;;;7.70;;
12271;SDS011;6198;51.446;6.698;2022-12-07T15:07:27;14.60;;;7.47;;
12271;SDS011;6198;51.446;6.698;2022-12-07T15:09:53;16.50;;;8.13;;
12271;SDS011;6198;51.446;6.698;2022-12-07T15:12:19;12.63;;;5.37;;
12271;SDS011;6198;51.446;6.698;2022-12-07T15:14:46;15.77;;;5.67;;
12271;SDS011;6198;51.446;6.698;2022-12-07T15:17:11;11.97;;;6.43;;
12271;SDS011;6198;51.446;6.698;2022-12-07T15:19:38;12.50;;;6.60;;
12271;SDS011;6198;51.446;6.698;2022-12-07T15:22:03;10.67;;;6.47;;
12271;SDS011;6198;51.446;6.698;2022-12-07T15:24:29;11.47;;;5.83;;
12271;SDS011;6198;51.446;6.698;2022-12-07T15:26:55;21.77;;;6.50;;
12271;SDS011;6198;51.446;6.698;2022-12-07T15:29:21;17.37;;;8.70;;
12271;SDS011;6198;51.446;6.698;2022-12-07T15:31:48;21.73;;;11.67;;
12271;SDS011;6198;51.446;6.698;2022-12-07T15:34:14;36.30;;;14.30;;
12271;SDS011;6198;51.446;6.698;2022-12-07T15:36:40;23.23;;;8.67;;
12271;SDS011;6198;51.446;6.698;2022-12-07T15:39:06;23.97;;;11.57;;
12271;SDS011;6198;51.446;6.698;2022-12-07T15:41:34;99.13;;;46.90;;
12271;SDS011;6198;51.446;6.698;2022-12-07T15:44:00;188.00;;;100.00;;
12271;SDS011;6198;51.446;6.698;2022-12-07T15:46:45;448.50;;;249.27;;
12271;SDS011;6198;51.446;6.698;2022-12-07T15:49:17;158.27;;;83.43;;
12271;SDS011;6198;51.446;6.698;2022-12-07T15:51:44;105.93;;;53.77;;
12271;SDS011;6198;51.446;6.698;2022-12-07T15:54:21;146.17;;;67.87;;
12271;SDS011;6198;51.446;6.698;2022-12-07T15:56:47;52.03;;;24.97;;
12271;SDS011;6198;51.446;6.698;2022-12-07T15:59:13;33.63;;;16.07;;
12271;SDS011;6198;51.446;6.698;2022-12-07T16:01:39;29.77;;;14.17;;
12271;SDS011;6198;51.446;6.698;2022-12-07T16:04:05;31.70;;;12.07;;
12271;SDS011;6198;51.446;6.698;2022-12-07T16:06:31;70.47;;;22.17;;
12271;SDS011;6198;51.446;6.698;2022-12-07T16:08:57;36.57;;;12.60;;
12271;SDS011;6198;51.446;6.698;2022-12-07T16:11:23;68.80;;;24.43;;
12271;SDS011;6198;51.446;6.698;2022-12-07T16:13:49;67.77;;;29.67;;